createdAt,value
2023-04-19T00:00:08.475Z,100137.09
2023-04-19T00:00:21.332Z,100137.22
2023-04-19T00:00:34.616Z,100133.47
2023-04-19T00:00:46.575Z,100133.38
2023-04-19T00:00:59.266Z,100135.94
2023-04-19T00:01:12.365Z,100135.84
2023-04-19T00:01:24.632Z,100135.91
2023-04-19T00:01:36.763Z,100134.28
2023-04-19T00:01:48.859Z,100134.13
2023-04-19T00:02:01.599Z,100133.19
2023-04-19T00:02:13.830Z,100136.59
2023-04-19T00:02:26.270Z,100132.31
2023-04-19T00:02:42.232Z,100137.78
2023-04-19T00:03:08.543Z,100133.53
2023-04-19T00:03:25.856Z,100136.06
2023-04-19T00:03:38.187Z,100133.41
2023-04-19T00:03:50.913Z,100137.72
2023-04-19T00:04:03.563Z,100131.53
2023-04-19T00:04:16.096Z,100131.56
2023-04-19T00:04:28.721Z,100135.97
2023-04-19T00:04:41.054Z,100137.94
2023-04-19T00:04:53.432Z,100137.06
2023-04-19T00:05:06.356Z,100137.22
2023-04-19T00:05:18.857Z,100131.97
2023-04-19T00:05:31.337Z,100132.78
2023-04-19T00:05:43.483Z,100131.84
2023-04-19T00:05:58.768Z,100131.84
2023-04-19T00:06:10.859Z,100131.75
2023-04-19T00:06:23.314Z,100135.50
2023-04-19T00:06:35.423Z,100132.84
2023-04-19T00:06:47.405Z,100128.69
2023-04-19T00:06:59.398Z,100129.44
2023-04-19T00:07:11.550Z,100127.31
2023-04-19T00:07:23.560Z,100127.13
2023-04-19T00:07:36.215Z,100135.78
2023-04-19T00:07:48.496Z,100131.50
2023-04-19T00:08:00.450Z,100129.03
2023-04-19T00:08:12.420Z,100128.78
2023-04-19T00:08:26.868Z,100132.09
2023-04-19T00:08:38.810Z,100131.94
2023-04-19T00:08:50.706Z,100127.53
2023-04-19T00:09:02.624Z,100130.91
2023-04-19T00:09:14.571Z,100126.53
2023-04-19T00:09:26.526Z,100135.09
2023-04-19T00:09:38.519Z,100132.09
2023-04-19T00:09:50.498Z,100131.72
2023-04-19T00:10:02.586Z,100127.22
2023-04-19T00:10:14.545Z,100127.91
2023-04-19T00:10:26.611Z,100128.63
2023-04-19T00:10:40.234Z,100126.72
2023-04-19T00:10:52.327Z,100124.94
2023-04-19T00:11:04.256Z,100131.75
2023-04-19T00:11:16.232Z,100123.97
2023-04-19T00:11:28.234Z,100123.13
2023-04-19T00:11:41.165Z,100127.38
2023-04-19T00:11:53.074Z,100126.81
2023-04-19T00:12:05.570Z,100133.66
2023-04-19T00:12:17.600Z,100121.69
2023-04-19T00:12:29.486Z,100122.50
2023-04-19T00:12:41.454Z,100120.63
2023-04-19T00:12:53.433Z,100126.69
2023-04-19T00:13:05.563Z,100130.06
2023-04-19T00:13:17.665Z,100130.00
2023-04-19T00:13:31.695Z,100125.03
2023-04-19T00:13:43.652Z,100131.75
2023-04-19T00:13:55.584Z,100127.56
2023-04-19T00:14:07.629Z,100122.34
2023-04-19T00:14:19.772Z,100124.03
2023-04-19T00:14:31.681Z,100125.66
2023-04-19T00:14:43.632Z,100121.50
2023-04-19T00:14:55.601Z,100123.13
2023-04-19T00:15:08.211Z,100126.66
2023-04-19T00:15:20.332Z,100123.47
2023-04-19T00:15:32.347Z,100125.28
2023-04-19T00:15:44.369Z,100122.50
2023-04-19T00:15:56.463Z,100121.50
2023-04-19T00:16:08.487Z,100127.75
2023-04-19T00:16:20.448Z,100121.63
2023-04-19T00:16:32.551Z,100123.22
2023-04-19T00:16:44.514Z,100124.25
2023-04-19T00:16:56.569Z,100123.66
2023-04-19T00:17:08.665Z,100123.59
2023-04-19T00:17:21.229Z,100114.03
2023-04-19T00:17:34.678Z,100120.81
2023-04-19T00:17:46.933Z,100117.50
2023-04-19T00:17:58.906Z,100126.22
2023-04-19T00:18:10.861Z,100120.00
2023-04-19T00:18:22.808Z,100125.31
2023-04-19T00:18:38.763Z,100126.06
2023-04-19T00:18:50.773Z,100124.28
2023-04-19T00:19:02.755Z,100127.06
2023-04-19T00:19:14.714Z,100121.78
2023-04-19T00:19:26.721Z,100120.00
2023-04-19T00:19:39.123Z,100120.66
2023-04-19T00:19:51.140Z,100122.59
2023-04-19T00:20:04.444Z,100129.44
2023-04-19T00:20:16.412Z,100124.06
2023-04-19T00:20:28.332Z,100118.09
2023-04-19T00:20:40.228Z,100118.03
2023-04-19T00:20:52.238Z,100117.63
2023-04-19T00:21:04.566Z,100113.91
2023-04-19T00:21:16.798Z,100116.00
2023-04-19T00:21:28.748Z,100116.66
2023-04-19T00:21:41.412Z,100116.72
2023-04-19T00:21:53.379Z,100124.53
2023-04-19T00:22:05.306Z,100117.47
2023-04-19T00:22:17.508Z,100118.53
2023-04-19T00:22:29.526Z,100115.72
2023-04-19T00:22:41.728Z,100114.78
2023-04-19T00:22:54.217Z,100117.31
2023-04-19T00:23:06.379Z,100119.44
2023-04-19T00:23:18.408Z,100117.50
2023-04-19T00:23:30.331Z,100115.72
2023-04-19T00:23:47.833Z,100114.69
2023-04-19T00:23:59.770Z,100124.94
2023-04-19T00:24:11.672Z,100112.03
2023-04-19T00:24:23.678Z,100117.13
2023-04-19T00:24:35.622Z,100113.56
2023-04-19T00:24:47.549Z,100119.66
2023-04-19T00:24:59.483Z,100116.13
2023-04-19T00:25:11.545Z,100111.75
2023-04-19T00:25:23.582Z,100111.03
2023-04-19T00:25:35.953Z,100104.38
2023-04-19T00:25:49.257Z,100111.22
2023-04-19T00:26:04.659Z,100112.81
2023-04-19T00:26:16.664Z,100114.44
2023-04-19T00:26:28.648Z,100110.91
2023-04-19T00:26:40.839Z,100114.25
2023-04-19T00:26:52.751Z,100109.47
2023-04-19T00:27:04.707Z,100112.72
2023-04-19T00:27:16.621Z,100112.69
2023-04-19T00:27:28.575Z,100110.06
2023-04-19T00:27:40.473Z,100107.31
2023-04-19T00:27:52.676Z,100107.50
2023-04-19T00:28:05.107Z,100111.94
2023-04-19T00:28:17.030Z,100112.91
2023-04-19T00:28:28.959Z,100104.09
2023-04-19T00:28:40.915Z,100113.53
2023-04-19T00:28:55.129Z,100106.53
2023-04-19T00:29:07.057Z,100110.84
2023-04-19T00:29:18.973Z,100113.38
2023-04-19T00:29:30.954Z,100107.78
2023-04-19T00:29:42.882Z,100111.91
2023-04-19T00:29:54.842Z,100119.66
2023-04-19T00:30:07.581Z,100104.75
2023-04-19T00:30:19.708Z,100115.94
2023-04-19T00:30:31.744Z,100119.34
2023-04-19T00:30:43.782Z,100113.28
2023-04-19T00:30:55.848Z,100116.69
2023-04-19T00:31:07.866Z,100118.38
2023-04-19T00:31:19.863Z,100112.28
2023-04-19T00:31:31.892Z,100117.38
2023-04-19T00:31:43.810Z,100118.25
2023-04-19T00:31:55.698Z,100118.25
2023-04-19T00:32:08.680Z,100117.31
2023-04-19T00:32:20.736Z,100120.72
2023-04-19T00:32:32.771Z,100110.19
2023-04-19T00:32:44.730Z,100117.13
2023-04-19T00:32:56.745Z,100114.47
2023-04-19T00:33:13.059Z,100119.56
2023-04-19T00:33:25.309Z,100118.66
2023-04-19T00:33:38.064Z,100119.50
2023-04-19T00:33:50.205Z,100124.59
2023-04-19T00:34:04.745Z,100121.16
2023-04-19T00:34:16.896Z,100126.31
2023-04-19T00:34:28.990Z,100128.97
2023-04-19T00:34:40.896Z,100127.16
2023-04-19T00:34:53.025Z,100122.06
2023-04-19T00:35:05.290Z,100125.47
2023-04-19T00:35:17.529Z,100125.47
2023-04-19T00:35:29.473Z,100134.16
2023-04-19T00:35:42.247Z,100128.97
2023-04-19T00:35:54.190Z,100125.47
2023-04-19T00:36:06.352Z,100121.94
2023-04-19T00:36:18.350Z,100127.16
2023-04-19T00:36:30.588Z,100132.38
2023-04-19T00:36:42.497Z,100127.28
2023-04-19T00:36:54.433Z,100119.47
2023-04-19T00:37:08.281Z,100131.56
2023-04-19T00:37:20.748Z,100136.75
2023-04-19T00:37:32.649Z,100127.16
2023-04-19T00:37:44.556Z,100132.38
2023-04-19T00:37:56.492Z,100131.69
2023-04-19T00:38:08.588Z,100129.06
2023-04-19T00:38:20.480Z,100134.28
2023-04-19T00:38:32.409Z,100132.47
2023-04-19T00:38:44.378Z,100132.47
2023-04-19T00:38:56.317Z,100136.81
2023-04-19T00:39:08.220Z,100131.59
2023-04-19T00:39:20.242Z,100140.34
2023-04-19T00:39:32.177Z,100135.09
2023-04-19T00:39:44.133Z,100129.97
2023-04-19T00:39:56.213Z,100132.59
2023-04-19T00:40:08.870Z,100137.03
2023-04-19T00:40:20.825Z,100132.63
2023-04-19T00:40:32.874Z,100137.84
2023-04-19T00:40:46.103Z,100139.66
2023-04-19T00:40:58.974Z,100136.22
2023-04-19T00:41:11.253Z,100140.56
2023-04-19T00:41:23.456Z,100138.75
2023-04-19T00:41:35.386Z,100140.41
2023-04-19T00:41:47.432Z,100136.03
2023-04-19T00:41:59.605Z,100140.34
2023-04-19T00:42:11.528Z,100141.19
2023-04-19T00:42:23.488Z,100141.19
2023-04-19T00:42:36.066Z,100142.91
2023-04-19T00:42:48.009Z,100136.78
2023-04-19T00:42:59.968Z,100137.69
2023-04-19T00:43:12.010Z,100140.22
2023-04-19T00:43:23.965Z,100142.03
2023-04-19T00:43:35.922Z,100141.19
2023-04-19T00:43:47.911Z,100135.91
2023-04-19T00:43:59.874Z,100139.38
2023-04-19T00:44:20.619Z,100144.53
2023-04-19T00:44:32.793Z,100139.34
2023-04-19T00:44:44.681Z,100135.81
2023-04-19T00:44:56.589Z,100139.25
2023-04-19T00:45:09.110Z,100138.41
2023-04-19T00:45:21.312Z,100138.41
2023-04-19T00:45:36.034Z,100140.94
2023-04-19T00:45:49.426Z,100139.22
2023-04-19T00:46:01.972Z,100140.94
2023-04-19T00:46:15.888Z,100139.22
2023-04-19T00:46:28.007Z,100143.56
2023-04-19T00:46:40.475Z,100136.59
2023-04-19T00:46:53.380Z,100143.47
2023-04-19T00:47:05.626Z,100136.47
2023-04-19T00:47:17.672Z,100139.03
2023-04-19T00:47:30.428Z,100139.88
2023-04-19T00:47:42.556Z,100138.16
2023-04-19T00:47:55.837Z,100135.53
2023-04-19T00:48:08.504Z,100138.97
2023-04-19T00:48:20.578Z,100138.03
2023-04-19T00:48:32.878Z,100132.78
2023-04-19T00:48:44.819Z,100130.22
2023-04-19T00:48:57.293Z,100131.94
2023-04-19T00:49:09.524Z,100137.16
2023-04-19T00:49:22.832Z,100132.78
2023-04-19T00:49:35.039Z,100137.03
2023-04-19T00:49:47.138Z,100133.63
2023-04-19T00:49:59.427Z,100131.00
2023-04-19T00:50:12.541Z,100132.69
2023-04-19T00:50:24.774Z,100134.41
2023-04-19T00:50:36.861Z,100138.78
2023-04-19T00:50:48.875Z,100138.78
2023-04-19T00:51:00.889Z,100130.03
2023-04-19T00:51:13.380Z,100136.16
2023-04-19T00:51:27.218Z,100131.84
2023-04-19T00:51:39.304Z,100123.13
2023-04-19T00:51:51.531Z,100128.34
2023-04-19T00:52:03.587Z,100138.78
2023-04-19T00:52:15.710Z,100130.03
2023-04-19T00:52:27.728Z,100130.16
2023-04-19T00:52:40.251Z,100133.63
2023-04-19T00:52:53.952Z,100131.88
2023-04-19T00:53:07.767Z,100128.44
2023-04-19T00:53:19.719Z,100131.03
2023-04-19T00:53:31.723Z,100133.63
2023-04-19T00:53:43.783Z,100131.00
2023-04-19T00:53:56.631Z,100128.38
2023-04-19T00:54:09.337Z,100128.44
2023-04-19T00:54:21.277Z,100125.84
2023-04-19T00:54:33.417Z,100130.25
2023-04-19T00:54:45.875Z,100130.22
2023-04-19T00:54:58.321Z,100126.75
2023-04-19T00:55:10.315Z,100129.34
2023-04-19T00:55:23.344Z,100126.63
2023-04-19T00:55:35.638Z,100131.84
2023-04-19T00:55:50.848Z,100129.28
2023-04-19T00:56:05.441Z,100134.47
2023-04-19T00:56:17.729Z,100128.44
2023-04-19T00:56:29.942Z,100127.53
2023-04-19T00:56:41.979Z,100130.16
2023-04-19T00:56:54.646Z,100127.47
2023-04-19T00:57:06.766Z,100132.69
2023-04-19T00:57:18.825Z,100125.75
2023-04-19T00:57:31.301Z,100133.56
2023-04-19T00:57:44.181Z,100129.22
2023-04-19T00:57:56.352Z,100126.63
2023-04-19T00:58:09.364Z,100131.84
2023-04-19T00:58:21.405Z,100132.69
2023-04-19T00:58:33.667Z,100126.63
2023-04-19T00:58:46.051Z,100123.22
2023-04-19T00:58:58.996Z,100124.94
2023-04-19T00:59:11.876Z,100130.16
2023-04-19T00:59:24.840Z,100130.16
2023-04-19T00:59:37.569Z,100126.63
2023-04-19T00:59:49.502Z,100127.53
2023-04-19T01:00:01.619Z,100127.53
2023-04-19T01:00:14.911Z,100128.53
2023-04-19T01:00:26.874Z,100131.16
2023-04-19T01:00:39.107Z,100123.56
2023-04-19T01:00:51.111Z,100128.72
2023-04-19T01:01:03.041Z,100119.13
2023-04-19T01:01:15.616Z,100126.81
2023-04-19T01:01:28.807Z,100130.34
2023-04-19T01:01:41.648Z,100127.72
2023-04-19T01:01:53.857Z,100127.72
2023-04-19T01:02:07.345Z,100124.38
2023-04-19T01:02:21.164Z,100123.72
2023-04-19T01:02:33.280Z,100118.50
2023-04-19T01:02:45.992Z,100127.13
2023-04-19T01:02:58.461Z,100121.00
2023-04-19T01:03:10.581Z,100123.59
2023-04-19T01:03:22.957Z,100127.94
2023-04-19T01:03:36.446Z,100126.19
2023-04-19T01:03:48.767Z,100119.19
2023-04-19T01:04:01.964Z,100114.91
2023-04-19T01:04:15.769Z,100122.63
2023-04-19T01:04:28.487Z,100121.84
2023-04-19T01:04:40.544Z,100119.19
2023-04-19T01:04:52.745Z,100120.94
2023-04-19T01:05:05.039Z,100121.78
2023-04-19T01:05:17.053Z,100118.34
2023-04-19T01:05:29.092Z,100128.81
2023-04-19T01:05:41.566Z,100121.91
2023-04-19T01:05:53.563Z,100123.63
2023-04-19T01:06:05.750Z,100121.94
2023-04-19T01:06:17.890Z,100127.28
2023-04-19T01:06:30.477Z,100126.69
2023-04-19T01:06:42.542Z,100123.50
2023-04-19T01:06:54.778Z,100124.13
2023-04-19T01:07:07.002Z,100125.78
2023-04-19T01:07:19.441Z,100128.38
2023-04-19T01:07:33.984Z,100125.75
2023-04-19T01:07:46.088Z,100127.44
2023-04-19T01:07:58.129Z,100124.78
2023-04-19T01:08:10.082Z,100127.34
2023-04-19T01:08:22.002Z,100120.41
2023-04-19T01:08:33.910Z,100122.97
2023-04-19T01:08:45.797Z,100123.88
2023-04-19T01:08:58.234Z,100122.13
2023-04-19T01:09:10.196Z,100126.47
2023-04-19T01:09:22.178Z,100125.56
2023-04-19T01:09:34.843Z,100124.72
2023-04-19T01:09:47.065Z,100126.34
2023-04-19T01:09:59.008Z,100130.69
2023-04-19T01:10:10.993Z,100126.31
2023-04-19T01:10:22.906Z,100127.16
2023-04-19T01:10:35.455Z,100124.56
2023-04-19T01:10:47.338Z,100134.28
2023-04-19T01:10:59.276Z,100123.75
2023-04-19T01:11:11.447Z,100128.16
2023-04-19T01:11:24.339Z,100123.75
2023-04-19T01:11:36.291Z,100125.44
2023-04-19T01:11:48.786Z,100121.16
2023-04-19T01:12:03.602Z,100124.66
2023-04-19T01:12:15.598Z,100124.56
2023-04-19T01:12:27.596Z,100127.16
2023-04-19T01:12:40.326Z,100129.16
2023-04-19T01:12:52.243Z,100119.56
2023-04-19T01:13:04.239Z,100123.91
2023-04-19T01:13:16.122Z,100123.88
2023-04-19T01:13:28.132Z,100114.25
2023-04-19T01:13:40.243Z,100128.13
2023-04-19T01:13:53.273Z,100118.72
2023-04-19T01:14:05.195Z,100115.41
2023-04-19T01:14:17.981Z,100122.31
2023-04-19T01:14:29.956Z,100122.31
2023-04-19T01:14:42.122Z,100124.00
2023-04-19T01:14:54.031Z,100125.75
2023-04-19T01:15:06.665Z,100116.28
2023-04-19T01:15:18.778Z,100113.88
2023-04-19T01:15:32.031Z,100114.03
2023-04-19T01:15:44.414Z,100123.47
2023-04-19T01:15:57.803Z,100115.50
2023-04-19T01:16:10.412Z,100116.34
2023-04-19T01:16:22.596Z,100114.59
2023-04-19T01:16:36.263Z,100121.41
2023-04-19T01:16:48.363Z,100121.38
2023-04-19T01:17:00.613Z,100117.13
2023-04-19T01:17:13.632Z,100117.13
2023-04-19T01:17:27.132Z,100112.72
2023-04-19T01:17:39.530Z,100110.47
2023-04-19T01:17:51.853Z,100117.38
2023-04-19T01:18:04.000Z,100114.66
2023-04-19T01:18:15.960Z,100112.00
2023-04-19T01:18:32.791Z,100118.06
2023-04-19T01:18:44.928Z,100112.00
2023-04-19T01:18:57.045Z,100116.06
2023-04-19T01:19:09.158Z,100121.25
2023-04-19T01:19:21.341Z,100115.28
2023-04-19T01:19:34.875Z,100110.84
2023-04-19T01:19:47.272Z,100109.00
2023-04-19T01:20:04.185Z,100119.31
2023-04-19T01:20:16.439Z,100114.06
2023-04-19T01:20:28.377Z,100111.44
2023-04-19T01:20:41.216Z,100113.97
2023-04-19T01:20:53.153Z,100111.28
2023-04-19T01:21:05.351Z,100114.44
2023-04-19T01:21:17.391Z,100112.69
2023-04-19T01:21:30.477Z,100110.91
2023-04-19T01:21:43.752Z,100117.06
2023-04-19T01:21:56.339Z,100112.53
2023-04-19T01:22:09.865Z,100119.34
2023-04-19T01:22:24.906Z,100112.34
2023-04-19T01:22:37.905Z,100113.97
2023-04-19T01:22:49.889Z,100116.56
2023-04-19T01:23:01.834Z,100108.75
2023-04-19T01:23:13.951Z,100103.56
2023-04-19T01:23:26.080Z,100111.31
2023-04-19T01:23:39.333Z,100106.97
2023-04-19T01:23:52.273Z,100112.09
2023-04-19T01:24:04.382Z,100106.97
2023-04-19T01:24:16.417Z,100115.59
2023-04-19T01:24:28.459Z,100113.13
2023-04-19T01:24:40.409Z,100105.34
2023-04-19T01:24:52.332Z,100114.16
2023-04-19T01:25:04.891Z,100107.22
2023-04-19T01:25:16.858Z,100114.50
2023-04-19T01:25:28.858Z,100108.31
2023-04-19T01:25:40.825Z,100110.84
2023-04-19T01:25:52.829Z,100109.22
2023-04-19T01:26:05.437Z,100111.84
2023-04-19T01:26:17.446Z,100113.53
2023-04-19T01:26:29.331Z,100104.75
2023-04-19T01:26:41.259Z,100118.56
2023-04-19T01:26:53.153Z,100105.88
2023-04-19T01:27:05.093Z,100111.91
2023-04-19T01:27:17.514Z,100119.66
2023-04-19T01:27:29.475Z,100109.31
2023-04-19T01:27:41.436Z,100116.22
2023-04-19T01:27:53.318Z,100116.13
2023-04-19T01:28:05.985Z,100107.44
2023-04-19T01:28:17.886Z,100115.19
2023-04-19T01:28:29.806Z,100116.06
2023-04-19T01:28:42.220Z,100115.94
2023-04-19T01:28:54.357Z,100110.13
2023-04-19T01:29:06.293Z,100110.03
2023-04-19T01:29:18.817Z,100107.31
2023-04-19T01:29:30.791Z,100110.75
2023-04-19T01:29:43.169Z,100110.66
2023-04-19T01:29:55.214Z,100108.88
2023-04-19T01:30:07.902Z,100106.22
2023-04-19T01:30:19.839Z,100112.34
2023-04-19T01:30:32.714Z,100107.25
2023-04-19T01:30:44.607Z,100113.22
2023-04-19T01:30:56.648Z,100113.22
2023-04-19T01:31:08.689Z,100105.34
2023-04-19T01:31:20.817Z,100111.38
2023-04-19T01:31:32.786Z,100109.56
2023-04-19T01:31:49.184Z,100102.56
2023-04-19T01:32:01.258Z,100109.53
2023-04-19T01:32:13.716Z,100098.16
2023-04-19T01:32:28.453Z,100102.47
2023-04-19T01:32:40.574Z,100101.50
2023-04-19T01:32:52.599Z,100104.06
2023-04-19T01:33:04.623Z,100104.06
2023-04-19T01:33:17.301Z,100103.97
2023-04-19T01:33:29.368Z,100099.69
2023-04-19T01:33:41.253Z,100103.97
2023-04-19T01:33:53.210Z,100104.91
2023-04-19T01:34:05.581Z,100102.28
2023-04-19T01:34:17.602Z,100112.75
2023-04-19T01:34:29.728Z,100101.50
2023-04-19T01:34:42.789Z,100097.97
2023-04-19T01:34:54.699Z,100098.78
2023-04-19T01:35:06.975Z,100104.91
2023-04-19T01:35:19.106Z,100106.59
2023-04-19T01:35:31.022Z,100104.91
2023-04-19T01:35:42.957Z,100095.25
2023-04-19T01:35:54.936Z,100099.53
2023-04-19T01:36:07.414Z,100100.47
2023-04-19T01:36:19.357Z,100095.28
2023-04-19T01:36:31.314Z,100102.25
2023-04-19T01:36:43.242Z,100096.28
2023-04-19T01:36:55.169Z,100094.56
2023-04-19T01:37:07.140Z,100101.50
2023-04-19T01:37:19.185Z,100096.25
2023-04-19T01:37:31.087Z,100094.47
2023-04-19T01:37:43.082Z,100093.56
2023-04-19T01:37:56.221Z,100095.56
2023-04-19T01:38:08.362Z,100100.88
2023-04-19T01:38:20.427Z,100104.53
2023-04-19T01:38:32.400Z,100097.47
2023-04-19T01:38:44.387Z,100093.91
2023-04-19T01:38:56.912Z,100100.16
2023-04-19T01:39:09.033Z,100092.25
2023-04-19T01:39:21.662Z,100098.34
2023-04-19T01:39:33.668Z,100103.56
2023-04-19T01:39:45.633Z,100100.06
2023-04-19T01:39:57.555Z,100099.28
2023-04-19T01:40:09.897Z,100094.00
2023-04-19T01:40:25.568Z,100097.53
2023-04-19T01:40:37.546Z,100100.25
2023-04-19T01:40:49.435Z,100093.25
2023-04-19T01:41:01.360Z,100094.94
2023-04-19T01:41:13.716Z,100097.66
2023-04-19T01:41:27.146Z,100094.06
2023-04-19T01:41:39.315Z,100089.66
2023-04-19T01:41:51.263Z,100093.13
2023-04-19T01:42:04.224Z,100092.28
2023-04-19T01:42:16.171Z,100089.66
2023-04-19T01:42:28.068Z,100088.69
2023-04-19T01:42:40.387Z,100090.47
2023-04-19T01:42:52.776Z,100086.06
2023-04-19T01:43:04.663Z,100089.47
2023-04-19T01:43:18.301Z,100090.50
2023-04-19T01:43:30.348Z,100086.25
2023-04-19T01:43:42.244Z,100087.94
2023-04-19T01:43:54.156Z,100086.13
2023-04-19T01:44:06.166Z,100086.13
2023-04-19T01:44:18.062Z,100082.63
2023-04-19T01:44:30.752Z,100091.25
2023-04-19T01:44:42.650Z,100086.06
2023-04-19T01:44:54.535Z,100088.00
2023-04-19T01:45:06.855Z,100092.41
2023-04-19T01:45:21.379Z,100084.53
2023-04-19T01:45:34.080Z,100085.31
2023-04-19T01:45:46.320Z,100084.53
2023-04-19T01:45:58.365Z,100086.31
2023-04-19T01:46:10.288Z,100089.91
2023-04-19T01:46:22.301Z,100086.31
2023-04-19T01:46:35.057Z,100088.88
2023-04-19T01:46:47.014Z,100096.66
2023-04-19T01:46:59.043Z,100087.94
2023-04-19T01:47:11.198Z,100090.53
2023-04-19T01:47:24.892Z,100086.13
2023-04-19T01:47:37.064Z,100091.34
2023-04-19T01:47:49.078Z,100087.00
2023-04-19T01:48:04.738Z,100086.13
2023-04-19T01:48:16.766Z,100093.06
2023-04-19T01:48:28.675Z,100086.19
2023-04-19T01:48:40.609Z,100087.94
2023-04-19T01:48:52.519Z,100082.72
2023-04-19T01:49:04.796Z,100082.72
2023-04-19T01:49:16.949Z,100084.44
2023-04-19T01:49:28.916Z,100083.81
2023-04-19T01:49:40.859Z,100084.53
2023-04-19T01:49:52.916Z,100085.31
2023-04-19T01:50:05.375Z,100087.03
2023-04-19T01:50:17.541Z,100087.41
2023-04-19T01:50:29.500Z,100083.00
2023-04-19T01:50:41.497Z,100085.59
2023-04-19T01:50:53.381Z,100080.38
2023-04-19T01:51:05.417Z,100085.63
2023-04-19T01:51:17.548Z,100082.25
2023-04-19T01:51:29.627Z,100077.81
2023-04-19T01:51:41.586Z,100092.00
2023-04-19T01:51:53.571Z,100081.59
2023-04-19T01:52:05.539Z,100087.66
2023-04-19T01:52:17.504Z,100087.53
2023-04-19T01:52:29.501Z,100073.69
2023-04-19T01:52:41.476Z,100082.50
2023-04-19T01:52:53.410Z,100085.19
2023-04-19T01:53:05.540Z,100080.00
2023-04-19T01:53:17.575Z,100079.09
2023-04-19T01:53:29.496Z,100079.97
2023-04-19T01:53:42.432Z,100076.38
2023-04-19T01:53:54.619Z,100085.00
2023-04-19T01:54:07.135Z,100075.44
2023-04-19T01:54:19.163Z,100080.59
2023-04-19T01:54:31.681Z,100081.41
2023-04-19T01:54:43.647Z,100079.59
2023-04-19T01:54:55.861Z,100083.44
2023-04-19T01:55:08.184Z,100079.97
2023-04-19T01:55:20.139Z,100083.28
2023-04-19T01:55:35.074Z,100077.22
2023-04-19T01:55:46.994Z,100084.03
2023-04-19T01:55:58.888Z,100077.88
2023-04-19T01:56:10.784Z,100076.03
2023-04-19T01:56:22.781Z,100075.09
2023-04-19T01:56:34.877Z,100080.25
2023-04-19T01:56:46.844Z,100076.78
2023-04-19T01:56:58.818Z,100079.41
2023-04-19T01:57:10.758Z,100075.91
2023-04-19T01:57:22.688Z,100079.41
2023-04-19T01:57:34.591Z,100078.00
2023-04-19T01:57:46.470Z,100079.69
2023-04-19T01:57:58.403Z,100079.59
2023-04-19T01:58:10.479Z,100075.19
2023-04-19T01:58:22.414Z,100078.63
2023-04-19T01:58:34.319Z,100069.00
2023-04-19T01:58:46.205Z,100074.09
2023-04-19T01:58:58.164Z,100076.00
2023-04-19T01:59:10.094Z,100071.56
2023-04-19T01:59:21.981Z,100075.09
2023-04-19T01:59:33.904Z,100074.28
2023-04-19T01:59:45.872Z,100081.66
2023-04-19T01:59:57.750Z,100079.78
2023-04-19T02:00:10.617Z,100078.84
2023-04-19T02:00:23.075Z,100081.41
2023-04-19T02:00:35.095Z,100072.69
2023-04-19T02:00:47.326Z,100072.63
2023-04-19T02:00:59.398Z,100077.81
2023-04-19T02:01:14.385Z,100076.03
2023-04-19T02:01:26.433Z,100074.41
2023-04-19T02:01:38.444Z,100076.91
2023-04-19T02:01:50.496Z,100075.25
2023-04-19T02:02:02.746Z,100076.94
2023-04-19T02:02:15.484Z,100069.09
2023-04-19T02:02:27.551Z,100071.59
2023-04-19T02:02:40.220Z,100068.16
2023-04-19T02:02:52.404Z,100070.69
2023-04-19T02:03:04.697Z,100075.91
2023-04-19T02:03:17.060Z,100066.41
2023-04-19T02:03:29.479Z,100071.59
2023-04-19T02:03:42.089Z,100070.69
2023-04-19T02:03:54.528Z,100069.78
2023-04-19T02:04:07.797Z,100072.38
2023-04-19T02:04:22.014Z,100066.41
2023-04-19T02:04:34.706Z,100069.19
2023-04-19T02:04:46.625Z,100064.97
2023-04-19T02:04:58.601Z,100066.63
2023-04-19T02:05:11.354Z,100066.59
2023-04-19T02:05:23.280Z,100072.59
2023-04-19T02:05:35.265Z,100065.59
2023-04-19T02:05:47.190Z,100064.78
2023-04-19T02:05:59.097Z,100066.81
2023-04-19T02:06:12.742Z,100071.25
2023-04-19T02:06:24.667Z,100069.63
2023-04-19T02:06:36.587Z,100067.94
2023-04-19T02:06:48.495Z,100069.63
2023-04-19T02:07:00.578Z,100066.06
2023-04-19T02:07:12.485Z,100066.03
2023-04-19T02:07:24.467Z,100072.16
2023-04-19T02:07:36.357Z,100069.56
2023-04-19T02:07:48.401Z,100066.88
2023-04-19T02:08:01.752Z,100066.16
2023-04-19T02:08:13.693Z,100070.28
2023-04-19T02:08:25.607Z,100062.47
2023-04-19T02:08:37.553Z,100067.66
2023-04-19T02:08:49.484Z,100064.97
2023-04-19T02:09:01.498Z,100071.88
2023-04-19T02:09:13.446Z,100070.19
2023-04-19T02:09:25.558Z,100064.88
2023-04-19T02:09:38.316Z,100061.41
2023-04-19T02:09:50.522Z,100061.31
2023-04-19T02:10:02.499Z,100062.25
2023-04-19T02:10:15.143Z,100067.47
2023-04-19T02:10:27.236Z,100065.66
2023-04-19T02:10:39.126Z,100059.59
2023-04-19T02:10:51.121Z,100062.94
2023-04-19T02:11:10.446Z,100062.06
2023-04-19T02:11:22.420Z,100060.38
2023-04-19T02:11:34.461Z,100071.66
2023-04-19T02:11:46.388Z,100061.41
2023-04-19T02:11:58.338Z,100056.97
2023-04-19T02:12:10.375Z,100061.31
2023-04-19T02:12:22.327Z,100063.88
2023-04-19T02:12:34.831Z,100070.81
2023-04-19T02:12:46.812Z,100059.59
2023-04-19T02:12:58.723Z,100056.59
2023-04-19T02:13:10.633Z,100071.16
2023-04-19T02:13:22.519Z,100062.44
2023-04-19T02:13:34.745Z,100063.25
2023-04-19T02:13:46.699Z,100064.97
2023-04-19T02:13:58.596Z,100061.50
2023-04-19T02:14:10.541Z,100055.56
2023-04-19T02:14:22.446Z,100064.53
2023-04-19T02:14:35.374Z,100056.94
2023-04-19T02:14:47.619Z,100060.25
2023-04-19T02:15:02.126Z,100061.94
2023-04-19T02:15:14.080Z,100059.22
2023-04-19T02:15:26.037Z,100061.75
2023-04-19T02:15:37.981Z,100063.44
2023-04-19T02:15:51.982Z,100052.22
2023-04-19T02:16:07.064Z,100054.84
2023-04-19T02:16:19.029Z,100055.03
2023-04-19T02:16:31.969Z,100064.53
2023-04-19T02:16:45.180Z,100050.53
2023-04-19T02:16:57.246Z,100053.94
2023-04-19T02:17:09.222Z,100061.69
2023-04-19T02:17:21.107Z,100057.34
2023-04-19T02:17:33.048Z,100057.34
2023-04-19T02:17:47.269Z,100055.63
2023-04-19T02:18:00.199Z,100056.53
2023-04-19T02:18:13.400Z,100049.63
2023-04-19T02:18:26.347Z,100054.00
2023-04-19T02:18:41.510Z,100052.31
2023-04-19T02:18:53.591Z,100054.19
2023-04-19T02:19:05.532Z,100050.72
2023-04-19T02:19:18.046Z,100048.94
2023-04-19T02:19:30.193Z,100050.59
2023-04-19T02:19:42.148Z,100050.81
2023-04-19T02:19:54.250Z,100052.50
2023-04-19T02:20:08.531Z,100049.00
2023-04-19T02:20:20.676Z,100054.16
2023-04-19T02:20:32.703Z,100051.59
2023-04-19T02:20:44.632Z,100050.66
2023-04-19T02:20:56.545Z,100054.00
2023-04-19T02:21:11.355Z,100054.00
2023-04-19T02:21:23.307Z,100053.06
2023-04-19T02:21:35.370Z,100050.41
2023-04-19T02:21:47.411Z,100048.63